• Join FlightAware (Why Join?)
  • Login
  • US Flag 
06:50AM EST


 

Airport Tracker/Info


-or-


 

Live Flight TrackerFlight Track Log ✈ N130RC ✈ 02-Jun-2014 ✈ KCMA - KHIO

Flight Track Log - Related Links

Times and Time Zones

All times are in EDT time to prevent confusion due to time zone crossing. See the N130RC flight status page for this flight to view local times or setup timezone preferences in your user account.

Time Position Orientation Groundspeed Altitude Reporting Facility
EDT Latitude Longitude Course Direction KTS MPH feet Rate Location/Type
10:26AM 34.2139 -119.1178 293° West 100 115 600  Level Los Angeles Center
10:27AM 34.2261 -119.1531 293° West 110 127 1,500 780 Climbing Los Angeles Center
10:28AM 34.2367 -119.1911 289° West 118 136 2,300 600 Climbing Los Angeles Center
10:29AM 34.2433 -119.2117 291° West 120 138 2,600 660 Climbing Los Angeles Center
10:29AM 34.2461 -119.2244 285° West 123 142 2,900 840 Climbing Los Angeles Center
10:30AM 34.2542 -119.2575 286° West 117 135 3,500 660 Climbing Los Angeles Center
10:31AM 34.2769 -119.2842 316° Northwest 121 139 4,200 720 Climbing Los Angeles Center
10:32AM 34.3122 -119.2975 343° North 127 146 5,000 720 Climbing Los Angeles Center
10:33AM 34.3442 -119.3131 338° Northwest 127 146 5,700 660 Climbing Los Angeles Center
10:34AM 34.3769 -119.3278 340° North 127 146 6,400 660 Climbing Los Angeles Center
10:35AM 34.4100 -119.3447 337° Northwest 127 146 7,100 600 Climbing Los Angeles Center
10:36AM 34.4450 -119.3644 335° Northwest 131 151 7,700 660 Climbing Los Angeles Center
10:37AM 34.4536 -119.4175 281° West 129 148 8,500 720 Climbing Los Angeles Center
10:38AM 34.4678 -119.4564 294° West 130 150 9,200 540 Climbing Los Angeles Center
10:39AM 34.4831 -119.4983 294° West 131 151 9,700 420 Climbing Los Angeles Center
10:40AM 34.5053 -119.5383 304° West 138 159 10,100 480 Climbing Los Angeles Center
10:41AM 34.5542 -119.5531 346° North 170 196 10,700 540 Climbing Los Angeles Center
10:42AM 34.6003 -119.5669 346° North 169 194 11,300 540 Climbing Los Angeles Center
10:43AM 34.6472 -119.5836 344° North 170 196 11,900 480 Climbing Los Angeles Center
10:44AM 34.6947 -119.6000 344° North 175 201 12,300 480 Climbing Los Angeles Center
10:45AM 34.7514 -119.6239 341° North 176 203 12,900 540 Climbing Los Angeles Center
10:46AM 34.7978 -119.6425 342° North 177 204 13,500 540 Climbing Los Angeles Center
10:47AM 34.8453 -119.6611 342° North 177 204 14,100 480 Climbing Los Angeles Center
10:48AM 34.8933 -119.6789 343° North 179 206 14,600 480 Climbing Los Angeles Center
10:49AM 34.9408 -119.6983 341° North 179 206 15,200 480 Climbing Los Angeles Center
10:50AM 34.9894 -119.7167 343° North 180 207 15,700 420 Climbing Los Angeles Center
10:52AM 35.0378 -119.7358 342° North 180 207 16,100 180 Climbing Los Angeles Center
10:53AM 35.1008 -119.7608 342° North 195 224 16,100 -60 Level Los Angeles Center
10:54AM 35.1547 -119.7817 342° North 201 231 16,000  Descending Los Angeles Center
10:55AM 35.2058 -119.8014 343° North 197 227 16,100  Climbing Los Angeles Center
10:56AM 35.2575 -119.8219 342° North 196 226 16,100 -60 Level Los Angeles Center
10:57AM 35.3081 -119.8422 342° North 195 224 16,000  Descending Los Angeles Center
10:58AM 35.3589 -119.8619 342° North 194 223 16,100  Climbing Los Angeles Center
10:59AM 35.4200 -119.8853 343° North 194 223 16,100  Level Los Angeles Center
11:00AM 35.4681 -119.9050 342° North 188 216 16,200  Climbing Los Angeles Center
11:01AM 35.5183 -119.9233 343° North 188 216 16,200  Level Los Angeles Center
11:02AM 35.5681 -119.9444 341° North 187 215 16,200  Level Los Angeles Center
11:03AM 35.6178 -119.9644 342° North 188 216 16,200  Level Los Angeles Center
11:04AM 35.6786 -119.9881 343° North 189 217 16,200  Level Oakland Center
11:05AM 35.7297 -120.0089 342° North 190 219 16,200  Level Oakland Center
11:06AM 35.7811 -120.0303 341° North 191 220 16,200  Level Oakland Center
11:07AM 35.8325 -120.0508 342° North 192 221 16,200  Level Oakland Center
11:08AM 35.8842 -120.0725 341° North 193 222 16,200  Level Oakland Center
11:09AM 35.9347 -120.0936 341° North 193 222 16,200  Level Oakland Center
11:10AM 35.9869 -120.1161 341° North 194 223 16,200 -60 Level Oakland Center
11:11AM 36.0394 -120.1356 343° North 195 224 16,100  Descending Oakland Center
11:12AM 36.1011 -120.1617 341° North 195 224 16,200  Climbing Oakland Center
11:13AM 36.1528 -120.1831 342° North 195 224 16,200  Level Oakland Center
11:14AM 36.2050 -120.2042 342° North 196 226 16,200  Level Oakland Center
11:15AM 36.2572 -120.2264 341° North 196 226 16,200 -60 Level Oakland Center
11:16AM 36.3089 -120.2472 342° North 197 227 16,100 -60 Descending Oakland Center
11:17AM 36.3597 -120.2697 340° North 195 224 16,100  Level Oakland Center
11:18AM 36.4106 -120.2908 342° North 194 223 16,100  Level Oakland Center
11:19AM 36.4603 -120.3111 342° North 192 221 16,100  Level Oakland Center
11:20AM 36.5108 -120.3325 341° North 191 220 16,100  Level Oakland Center
11:21AM 36.5706 -120.3569 342° North 190 219 16,100  Level Oakland Center
11:22AM 36.6194 -120.3781 341° North 189 217 16,100  Level Oakland Center
11:23AM 36.6689 -120.3989 341° North 189 217 16,100 -60 Level Oakland Center
11:24AM 36.7183 -120.4194 342° North 188 216 16,000  Descending Oakland Center
11:25AM 36.7672 -120.4408 341° North 188 216 16,100  Climbing Oakland Center
11:26AM 36.8217 -120.4639 341° North 188 216 16,100  Level Oakland Center
11:27AM 36.8708 -120.4836 342° North 188 216 16,100  Level Oakland Center
11:28AM 36.9206 -120.5047 341° North 188 216 16,100  Level Oakland Center
11:29AM 36.9717 -120.5253 342° North 189 217 16,100  Level Oakland Center
11:30AM 37.0206 -120.5469 341° North 188 216 16,100  Level Oakland Center
11:31AM 37.0686 -120.5681 341° North 185 213 16,100 -60 Level Oakland Center
11:32AM 37.1172 -120.5897 340° North 185 213 16,000 -60 Descending Oakland Center
11:34AM 37.1669 -120.6100 342° North 186 214 16,000  Level Oakland Center
11:35AM 37.2161 -120.6311 341° North 186 214 16,000  Level Oakland Center
11:36AM 37.2833 -120.6500 347° North 203 234 16,100  Climbing Northern Cal TRACON
11:37AM 37.3167 -120.6833 322° Northwest 197 227 16,100  Level Northern Cal TRACON
11:38AM 37.3833 -120.7000 349° North 192 221 16,100  Level Northern Cal TRACON
11:39AM 37.4333 -120.7167 345° North 187 215 16,100  Level Northern Cal TRACON
11:40AM 37.4667 -120.7333 338° Northwest 188 216 16,100  Level Northern Cal TRACON
11:41AM 37.5333 -120.7667 338° Northwest 190 219 16,100  Level Northern Cal TRACON
11:42AM 37.5667 -120.7833 338° Northwest 190 219 16,100 -60 Level Northern Cal TRACON
11:43AM 37.6167 -120.8000 345° North 192 221 16,000  Descending Northern Cal TRACON
11:44AM 37.6833 -120.8333 338° Northwest 190 219 16,100  Climbing Northern Cal TRACON
11:45AM 37.7333 -120.8500 345° North 192 221 16,000  Descending Northern Cal TRACON
11:46AM 37.7833 -120.8667 345° North 192 221 16,100  Climbing Northern Cal TRACON
11:47AM 37.8333 -120.8833 345° North 191 220 16,100 -60 Level Northern Cal TRACON
11:48AM 37.8833 -120.9000 345° North 191 220 16,000 -60 Descending Northern Cal TRACON
11:48AM 37.9167 -120.9333 322° Northwest 192 221 16,000  Level Northern Cal TRACON
11:50AM 37.9833 -120.9500 349° North 192 221 16,000  Level Northern Cal TRACON
11:50AM 38.0167 -120.9667 339° North 193 222 16,000  Level Northern Cal TRACON
11:51AM 38.0667 -120.9833 345° North 192 221 16,000  Level Northern Cal TRACON
11:52AM 38.1167 -121.0000 345° North 189 217 16,000  Level Northern Cal TRACON
11:53AM 38.1403 -121.0144 334° Northwest 189 217 16,000  Level Oakland Center
11:54AM 38.1903 -121.0361 341° North 189 217 16,000  Level Oakland Center
11:55AM 38.2489 -121.0594 343° North 187 215 16,100  Climbing Oakland Center
11:56AM 38.2989 -121.0794 343° North 188 216 16,100  Level Oakland Center
11:57AM 38.3483 -121.0997 342° North 188 216 16,100  Level Oakland Center
11:58AM 38.3972 -121.1197 342° North 187 215 16,100  Level Oakland Center
11:59AM 38.4453 -121.1397 342° North 185 213 16,100 -60 Level Oakland Center
12:00PM 38.5000 -121.1619 342° North 185 213 16,000 -60 Descending Oakland Center
12:01PM 38.5489 -121.1817 342° North 185 213 16,000  Level Oakland Center
12:02PM 38.5981 -121.2025 342° North 185 213 16,100  Climbing Oakland Center
12:03PM 38.6453 -121.2231 341° North 183 211 16,100  Level Oakland Center
12:04PM 38.6953 -121.2433 342° North 183 211 16,100 -60 Level Oakland Center
12:05PM 38.7428 -121.2633 342° North 181 208 16,000 -60 Descending Oakland Center
12:06PM 38.7908 -121.2828 342° North 181 208 16,000  Level Oakland Center
12:07PM 38.8383 -121.3025 342° North 181 208 16,100  Climbing Oakland Center
12:08PM 38.8861 -121.3222 342° North 180 207 16,000 -60 Descending Oakland Center
12:09PM 38.9442 -121.3469 342° North 181 208 16,000  Level Oakland Center
12:10PM 38.9928 -121.3681 341° North 184 212 16,000  Level Oakland Center
12:12PM 39.0500 -121.3833 348° North 172 198 16,000  Level Northern Cal TRACON
12:13PM 39.1000 -121.4167 333° Northwest 170 196 16,100  Climbing Northern Cal TRACON
12:14PM 39.1878 -121.4503 343° North 185 213 16,100 -60 Level Oakland Center
12:15PM 39.2367 -121.4700 343° North 184 212 16,000 -60 Descending Oakland Center
12:17PM 39.2850 -121.4911 341° North 184 212 16,000  Level Oakland Center
12:18PM 39.3444 -121.5156 342° North 185 213 16,000  Level Oakland Center
12:19PM 39.3922 -121.5361 342° North 184 212 16,000  Level Oakland Center
12:20PM 39.4417 -121.5567 342° North 185 213 16,000  Level Oakland Center
12:21PM 39.4939 -121.5767 344° North 186 214 16,000  Level Oakland Center
12:22PM 39.5456 -121.5847 353° North 186 214 16,000  Level Oakland Center
12:23PM 39.5969 -121.5967 350° North 187 215 16,000  Level Oakland Center
12:24PM 39.6478 -121.6086 350° North 187 215 16,100  Climbing Oakland Center
12:25PM 39.6992 -121.6181 352° North 187 215 16,000  Descending Oakland Center
12:26PM 39.7506 -121.6297 350° North 187 215 16,100  Climbing Oakland Center
12:27PM 39.8008 -121.6403 351° North 186 214 16,000  Descending Oakland Center
12:28PM 39.8514 -121.6514 350° North 185 213 16,100  Climbing Oakland Center
12:29PM 39.9108 -121.6633 351° North 184 212 16,000 -60 Descending Oakland Center
12:30PM 39.9619 -121.6758 349° North 185 213 16,000  Level Oakland Center
12:31PM 40.0111 -121.6864 351° North 183 211 16,000  Level Oakland Center
12:32PM 40.0614 -121.6967 351° North 184 212 16,000  Level Oakland Center
12:33PM 40.1106 -121.7067 351° North 182 209 16,000  Level Oakland Center
12:34PM 40.1583 -121.7186 349° North 180 207 16,000  Level Oakland Center
12:35PM 40.2067 -121.7294 350° North 179 206 16,000  Level Oakland Center
12:36PM 40.2647 -121.7425 350° North 178 205 16,000  Level Oakland Center
12:37PM 40.3136 -121.7539 350° North 178 205 16,000  Level Oakland Center
12:38PM 40.3631 -121.7650 350° North 179 206 16,000  Level Oakland Center
12:39PM 40.4119 -121.7753 351° North 179 206 16,000  Level Oakland Center
12:40PM 40.4608 -121.7872 349° North 179 206 16,000  Level Oakland Center
12:41PM 40.5100 -121.7989 350° North 180 207 16,000  Level Oakland Center
12:42PM 40.5583 -121.8089 351° North 178 205 16,000  Level Oakland Center
12:43PM 40.6175 -121.8222 350° North 179 206 16,000  Level Oakland Center
12:44PM 40.6661 -121.8322 351° North 179 206 16,000  Level Oakland Center
12:45PM 40.7150 -121.8439 350° North 178 205 16,000  Level Oakland Center
12:46PM 40.7642 -121.8556 350° North 179 206 16,000  Level Oakland Center
12:47PM 40.8133 -121.8664 351° North 179 206 16,000  Level Oakland Center
12:48PM 40.8633 -121.8767 351° North 179 206 16,000  Level Oakland Center
12:49PM 40.9131 -121.8883 350° North 180 207 16,000  Level Oakland Center
12:50PM 40.9617 -121.9006 349° North 180 207 16,000  Level Oakland Center
12:51PM 41.0214 -121.9144 350° North 180 207 16,000  Level Oakland Center
12:52PM 41.0697 -121.9244 351° North 180 207 16,000  Level Oakland Center
12:53PM 41.1186 -121.9364 350° North 180 207 16,000  Level Oakland Center
12:54PM 41.1522 -121.9461 348° North 180 207 16,100  Climbing Seattle Center
12:55PM 41.2014 -121.9561 351° North 180 207 16,100  Level Seattle Center
12:56PM 41.2606 -121.9708 349° North 180 207 16,100  Level Seattle Center
12:57PM 41.3106 -121.9811 351° North 180 207 16,100  Level Seattle Center
12:58PM 41.3597 -121.9942 349° North 180 207 16,100  Level Seattle Center
12:59PM 41.4094 -122.0042 351° North 180 207 16,100 -60 Level Seattle Center
01:00PM 41.4592 -122.0153 350° North 180 207 16,000 -60 Descending Seattle Center
01:01PM 41.5083 -122.0269 350° North 180 207 16,000  Level Seattle Center
01:02PM 41.5575 -122.0383 350° North 180 207 16,100  Climbing Seattle Center
01:03PM 41.6061 -122.0497 350° North 180 207 16,100  Level Seattle Center
01:04PM 41.6556 -122.0603 351° North 180 207 16,100  Level Seattle Center
01:05PM 41.7047 -122.0717 350° North 180 207 16,100  Level Seattle Center
01:06PM 41.7547 -122.0831 350° North 180 207 16,100  Level Seattle Center
01:07PM 41.8042 -122.0950 350° North 180 207 16,100  Level Seattle Center
01:08PM 41.8544 -122.1061 351° North 181 208 16,100  Level Seattle Center
01:09PM 41.9142 -122.1197 350° North 181 208 16,100  Level Seattle Center
01:10PM 41.9636 -122.1314 350° North 180 207 16,100  Level Seattle Center
01:11PM 42.0128 -122.1436 350° North 180 207 16,100  Level Seattle Center
01:12PM 42.0614 -122.1536 351° North 180 207 16,100  Level Seattle Center
01:14PM 42.1103 -122.1650 350° North 180 207 16,100  Level Seattle Center
01:15PM 42.1592 -122.1769 350° North 180 207 16,100  Level Seattle Center
01:16PM 42.2094 -122.1908 348° North 183 211 16,100  Level Seattle Center
01:17PM 42.2575 -122.2011 351° North 177 204 16,100  Level Seattle Center
01:18PM 42.3069 -122.2131 350° North 178 205 16,100  Level Seattle Center
01:19PM 42.3564 -122.2250 350° North 179 206 16,100  Level Seattle Center
01:20PM 42.4053 -122.2367 350° North 179 206 16,100  Level Seattle Center
01:21PM 42.4533 -122.2506 348° North 179 206 16,100  Level Seattle Center
01:22PM 42.5097 -122.2633 351° North 180 207 16,100  Level Seattle Center
01:23PM 42.5592 -122.2739 351° North 178 205 16,100  Level Seattle Center
01:24PM 42.6078 -122.2856 350° North 175 201 16,100  Level Seattle Center
01:25PM 42.6600 -122.2983 350° North 178 205 16,100  Level Seattle Center
01:26PM 42.7083 -122.3103 350° North 176 203 16,100  Level Seattle Center
01:27PM 42.7553 -122.3214 350° North 172 198 16,100  Level Seattle Center
01:28PM 42.8031 -122.3339 349° North 175 201 16,100  Level Seattle Center
01:29PM 42.8503 -122.3450 350° North 171 197 16,100  Level Seattle Center
01:30PM 42.9011 -122.3592 348° North 174 200 16,100  Level Seattle Center
01:31PM 42.9475 -122.3703 350° North 172 198 16,100  Level Seattle Center
01:32PM 42.9944 -122.3814 350° North 175 201 16,100  Level Seattle Center
01:33PM 43.0422 -122.3931 350° North 177 204 16,100  Level Seattle Center
01:34PM 43.0911 -122.4025 352° North 170 196 16,100  Level Seattle Center
01:35PM 43.1381 -122.4131 351° North 170 196 16,100  Level Seattle Center
01:36PM 43.1833 -122.4269 347° North 170 196 16,100  Level Seattle Center
01:37PM 43.2292 -122.4375 350° North 169 194 16,100  Level Seattle Center
01:38PM 43.2719 -122.4489 349° North 167 192 16,100  Level Seattle Center
01:39PM 43.3194 -122.4569 353° North 168 193 16,100  Level Seattle Center
01:40PM 43.3661 -122.4686 350° North 169 194 16,100  Level Seattle Center
01:41PM 43.4122 -122.4794 350° North 168 193 16,100  Level Seattle Center
01:42PM 43.4683 -122.4892 353° North 168 193 16,100  Level Seattle Center
01:43PM 43.5139 -122.4983 352° North 168 193 16,100  Level Seattle Center
01:44PM 43.5617 -122.5058 354° North 174 200 16,100  Level Seattle Center
01:45PM 43.6083 -122.5153 352° North 173 199 16,100  Level Seattle Center
01:46PM 43.6542 -122.5269 350° North 169 194 16,100  Level Seattle Center
01:47PM 43.7006 -122.5364 352° North 169 194 16,100  Level Seattle Center
01:48PM 43.7475 -122.5456 352° North 170 196 16,100  Level Seattle Center
01:49PM 43.7928 -122.5564 350° North 167 192 16,100  Level Seattle Center
01:50PM 43.8397 -122.5664 351° North 168 193 16,100  Level Seattle Center
01:51PM 43.8853 -122.5769 351° North 168 193 16,100  Level Seattle Center
01:52PM 43.9306 -122.5853 352° North 167 192 16,100  Level Seattle Center
01:53PM 43.9861 -122.5981 351° North 167 192 16,100  Level Seattle Center
01:54PM 44.0317 -122.6089 350° North 167 192 16,100  Level Seattle Center
01:55PM 44.0772 -122.6186 351° North 167 192 16,100  Level Seattle Center
01:56PM 44.1228 -122.6283 351° North 167 192 16,100 -300 Level Seattle Center
01:57PM 44.1708 -122.6394 351° North 172 198 15,600 -480 Descending Seattle Center
01:58PM 44.2231 -122.6503 352° North 187 215 15,200 -420 Descending Seattle Center
01:59PM 44.2736 -122.6622 350° North 187 215 14,800 -480 Descending Seattle Center
02:00PM 44.3239 -122.6728 351° North 186 214 14,300 -540 Descending Seattle Center
02:01PM 44.3856 -122.6864 351° North 187 215 13,700 -600 Descending Seattle Center
02:02PM 44.4369 -122.6978 351° North 187 215 13,100 -600 Descending Seattle Center
02:03PM 44.4881 -122.7092 351° North 187 215 12,600 -540 Descending Seattle Center
02:04PM 44.5389 -122.7211 350° North 186 214 12,100 -540 Descending Seattle Center
02:05PM 44.5883 -122.7331 350° North 185 213 11,600 -540 Descending Seattle Center
02:06PM 44.6356 -122.7428 352° North 181 208 11,100 -480 Descending Seattle Center
02:08PM 44.6850 -122.7539 351° North 180 207 10,700 -480 Descending Seattle Center
02:09PM 44.7342 -122.7653 351° North 180 207 10,200 -600 Descending Seattle Center
02:10PM 44.7928 -122.7772 352° North 180 207 9,600 -540 Descending Seattle Center
02:11PM 44.8403 -122.7883 351° North 179 206 9,200 -480 Descending Seattle Center
02:12PM 44.8875 -122.7992 351° North 177 204 8,700 -540 Descending Seattle Center
02:12PM 44.9125 -122.8061 349° North 173 199 8,400 -540 Descending Seattle Center
02:13PM 44.9350 -122.8097 354° North 176 203 8,200 -420 Descending Seattle Center
02:13PM 44.9669 -122.8178 350° North 175 201 7,900 -420 Descending Seattle Center
02:14PM 44.9825 -122.8194 356° North 175 201 7,800 -540 Descending Seattle Center
02:14PM 45.0186 -122.8275 351° North 173 199 7,400 -540 Descending Seattle Center
02:15PM 45.0297 -122.8317 345° North 175 201 7,300 -540 Descending Seattle Center
02:15PM 45.0650 -122.8428 347° North 174 200 6,900 -600 Descending Seattle Center
02:16PM 45.0769 -122.8425 North 175 201 6,700 -600 Descending Seattle Center
02:16PM 45.1128 -122.8542 347° North 173 199 6,300 -600 Descending Seattle Center
02:17PM 45.1311 -122.8542 360° North 175 201 6,100 -540 Descending Seattle Center
02:17PM 45.1600 -122.8628 348° North 171 197 5,800 -540 Descending Seattle Center
02:18PM 45.1778 -122.8644 356° North 173 199 5,600 -540 Descending Seattle Center
02:18PM 45.2053 -122.8722 349° North 170 196 5,300 -600 Descending Seattle Center
02:19PM 45.2269 -122.8764 352° North 166 191 5,000 -660 Descending Seattle Center
02:19PM 45.2558 -122.8764 360° North 153 176 4,600 -840 Descending Seattle Center
02:20PM 45.2689 -122.8708 17° North 154 177 4,200 -1,260 Descending Seattle Center
02:20PM 45.2939 -122.8611 15° North 162 186 3,500 -900 Descending Seattle Center
02:21PM 45.3106 -122.8486 28° Northeast 158 182 3,300 -540 Descending Seattle Center
02:21PM 45.3353 -122.8414 12° North 158 182 3,000 -540 Descending Seattle Center
02:22PM 45.3519 -122.8356 14° North 143 165 2,800 -300 Descending Seattle Center
02:23PM 45.3858 -122.8322 North 141 162 2,600 -240 Descending Seattle Center
02:25PM 45.4416 -122.9134 314° West  Level FlightAware Approximate
02:32PM 45.5333 -122.9500 North  Level FlightAware Approximate
02:33PM 45.5408 -122.9502 North  Level Estimated
02:34PM 45.5408 -122.9502 North  Level Estimated
02:35PM 45.5408 -122.9502 179° South  Level Estimated
02:36PM 45.5408 -122.9502 North  Level Estimated
02:37PM 45.5408 -122.9502 179° South  Level Estimated